Terminal Aerodrome Forecast
Issued by NWS

Home | Current Version | Previous Version | Text Only | Print | Product List | Glossary On
Versions: 1 2 3 4 5 6 7 8 9 10 11 12 13 14 15 16 17 18
000
FTUS44 KEPZ 042324
TAFDMN
TAF
KDMN 042324Z 0500/0524 VRB06KT P6SM VCTS SCT080CB BKN150 BKN250
     FM051000 26006KT P6SM SCT070 BKN120 OVC250
     FM052000 25012KT P6SM VCTS SCT070CB BKN250=

USA.gov is the U.S. government's official web portal to all federal, state and local government web resources and services.